Time;durP1;ratioP1;P1;durP2;ratioP2;P2;SDS_P1;SDS_P2;PMS_P1;PMS_P2;Temp;Humidity;BMP_temperature;BMP_pressure;BME280_temperature;BME280_humidity;BME280_pressure;Samples;Min_cycle;Max_cycle;Signal;HPM_P1;HPM_P2
2021/06/03 00:02:12;;;;;;;;;21.00;19.25;;;;;21.97;57.16;101189.06;5135769;27;45173;-46
2021/06/03 00:04:37;;;;;;;;;20.50;20.00;;;;;21.96;57.63;101195.38;5139577;27;45228;-45
2021/06/03 00:07:03;;;;;;;;;22.25;18.25;;;;;21.97;57.80;101197.09;5125604;27;45492;-48
2021/06/03 00:09:29;;;;;;;;;17.00;17.00;;;;;21.95;57.69;101187.41;5119854;27;46200;-48
2021/06/03 00:11:54;;;;;;;;;18.25;17.75;;;;;21.93;57.68;101190.19;5111110;27;45388;-48
2021/06/03 00:14:20;;;;;;;;;21.00;19.75;;;;;21.89;57.50;101192.16;5131924;27;45593;-48
2021/06/03 00:16:46;;;;;;;;;18.50;17.25;;;;;21.85;58.01;101195.97;5137557;27;45542;-49
2021/06/03 00:19:12;;;;;;;;;19.25;17.25;;;;;21.86;58.20;101196.81;5135843;27;45279;-47
2021/06/03 00:21:41;;;;;;;;;19.00;18.00;;;;;21.87;57.91;101195.88;5138413;27;45333;-49
2021/06/03 00:24:06;;;;;;;;;20.00;18.25;;;;;21.85;57.77;101198.63;5133400;27;45401;-50
2021/06/03 00:26:33;;;;;;;;;17.50;17.50;;;;;21.80;58.02;101200.69;5134230;27;45525;-48
2021/06/03 00:28:59;;;;;;;;;20.50;20.00;;;;;21.84;58.03;101199.56;5135457;27;45380;-47
2021/06/03 00:31:24;;;;;;;;;19.25;18.50;;;;;21.83;57.68;101202.34;5110526;27;45676;-48
2021/06/03 00:33:50;;;;;;;;;17.50;17.50;;;;;21.77;58.22;101211.53;5134988;27;45511;-45
2021/06/03 00:36:15;;;;;;;;;19.25;19.25;;;;;21.73;58.38;101208.16;5134117;27;45519;-46
2021/06/03 00:38:41;;;;;;;;;21.00;20.25;;;;;21.62;58.36;101204.34;5104029;27;47085;-46
2021/06/03 00:41:08;;;;;;;;;16.75;16.75;;;;;21.58;58.75;101198.31;5140098;27;45303;-46
2021/06/03 00:43:34;;;;;;;;;20.00;18.25;;;;;21.62;58.83;101212.38;5131612;27;45455;-47
2021/06/03 00:46:00;;;;;;;;;21.50;21.25;;;;;21.57;58.95;101210.81;5139442;27;45673;-45
2021/06/03 00:48:26;;;;;;;;;22.25;21.75;;;;;21.58;58.26;101215.22;5137474;27;46254;-47
2021/06/03 00:50:55;;;;;;;;;19.25;18.25;;;;;21.52;58.58;101209.28;5137637;27;45390;-45
2021/06/03 00:53:21;;;;;;;;;21.75;20.75;;;;;21.44;58.44;101207.03;5135589;27;45385;-46
2021/06/03 00:55:52;;;;;;;;;21.75;20.50;;;;;21.37;58.82;101209.16;5135884;27;45307;-45
2021/06/03 00:58:17;;;;;;;;;20.50;20.25;;;;;21.48;58.60;101229.97;5133656;27;45312;-45
2021/06/03 01:00:43;;;;;;;;;16.75;16.25;;;;;21.40;58.73;101213.50;5134018;27;45259;-45
2021/06/03 01:03:09;;;;;;;;;19.50;19.50;;;;;21.46;58.97;101220.31;5130695;27;45314;-45
2021/06/03 01:05:48;;;;;;;;;19.00;17.75;;;;;21.41;59.10;101226.75;5132065;27;45733;-45
2021/06/03 01:08:19;;;;;;;;;19.75;19.50;;;;;21.40;59.07;101224.19;5130813;27;45508;-45
2021/06/03 01:10:57;;;;;;;;;21.00;20.75;;;;;21.45;58.63;101229.28;5117920;27;45514;-44
2021/06/03 01:13:22;;;;;;;;;18.75;17.25;;;;;21.46;58.64;101231.00;5131865;27;45388;-45
2021/06/03 01:15:49;;;;;;;;;17.50;17.00;;;;;21.39;59.24;101236.66;5130538;27;45476;-46
2021/06/03 01:18:17;;;;;;;;;23.50;19.50;;;;;21.35;59.66;101235.09;5135717;27;45485;-48
2021/06/03 01:20:45;;;;;;;;;25.25;21.50;;;;;21.27;59.93;101235.50;5104818;27;45365;-49
2021/06/03 01:23:32;;;;;;;;;25.00;19.75;;;;;21.22;59.98;101231.31;5112354;27;45253;-49
2021/06/03 01:25:59;;;;;;;;;21.50;21.25;;;;;21.24;59.69;101241.03;5134564;27;45331;-47
2021/06/03 01:28:25;;;;;;;;;22.50;19.25;;;;;21.24;59.66;101234.78;5138884;27;46384;-48
2021/06/03 01:30:53;;;;;;;;;28.00;22.50;;;;;21.23;59.27;101244.63;5133237;27;45405;-46
2021/06/03 01:33:22;;;;;;;;;24.25;22.50;;;;;21.29;59.62;101245.25;5136814;27;45372;-48
2021/06/03 01:35:53;;;;;;;;;23.50;22.00;;;;;21.30;59.44;101245.16;5139669;27;45322;-46
2021/06/03 01:38:23;;;;;;;;;27.00;23.25;;;;;21.28;59.57;101249.72;5125556;27;47007;-49
2021/06/03 01:40:50;;;;;;;;;20.00;19.50;;;;;21.21;59.55;101249.19;5122057;27;45419;-48
2021/06/03 01:43:18;;;;;;;;;21.25;20.25;;;;;21.17;60.07;101247.63;5132121;27;45415;-46
2021/06/03 01:45:44;;;;;;;;;22.50;20.00;;;;;21.13;60.22;101254.06;5130599;27;45487;-46
2021/06/03 01:48:11;;;;;;;;;21.75;21.00;;;;;21.14;59.71;101254.91;5135866;27;45275;-49
2021/06/03 01:50:40;;;;;;;;;23.25;23.25;;;;;21.09;60.47;101261.38;5129302;27;45347;-48
2021/06/03 01:53:06;;;;;;;;;21.00;20.00;;;;;21.09;60.39;101261.38;5121761;27;45358;-47
2021/06/03 01:55:31;;;;;;;;;18.75;17.25;;;;;21.11;60.28;101258.59;5128717;27;45464;-49
2021/06/03 01:57:59;;;;;;;;;19.50;18.75;;;;;21.08;60.32;101259.63;5124026;27;45235;-48
2021/06/03 02:00:25;;;;;;;;;22.75;21.25;;;;;21.03;60.86;101269.69;5109488;27;45412;-47
2021/06/03 02:02:51;;;;;;;;;20.75;19.00;;;;;21.05;60.22;101267.78;5122733;27;45520;-48
2021/06/03 02:05:18;;;;;;;;;20.75;20.00;;;;;21.04;60.19;101271.41;5126887;27;45541;-48
2021/06/03 02:07:43;;;;;;;;;20.50;19.25;;;;;21.03;60.00;101274.16;5133335;27;45563;-45
2021/06/03 02:10:12;;;;;;;;;22.00;22.00;;;;;21.00;60.48;101282.31;5110613;27;45426;-47
2021/06/03 02:12:45;;;;;;;;;24.25;21.25;;;;;21.01;61.05;101281.38;5122671;27;45524;-46
2021/06/03 02:15:11;;;;;;;;;24.50;21.25;;;;;20.92;60.32;101266.69;5133060;27;45285;-46
2021/06/03 02:17:47;;;;;;;;;22.00;20.25;;;;;20.93;60.40;101279.94;5131887;27;46812;-46
2021/06/03 02:20:17;;;;;;;;;23.75;21.00;;;;;20.97;60.50;101274.44;5139685;27;45414;-47
2021/06/03 02:22:47;;;;;;;;;26.50;23.50;;;;;20.97;61.04;101271.78;5131254;27;45325;-46
2021/06/03 02:25:12;;;;;;;;;24.50;22.25;;;;;20.98;60.64;101271.72;5116812;27;45579;-47
2021/06/03 02:27:39;;;;;;;;;21.75;20.25;;;;;21.00;61.00;101268.97;5128175;27;46321;-45
2021/06/03 02:30:06;;;;;;;;;21.75;20.75;;;;;20.98;60.89;101271.72;5130720;27;45444;-47
2021/06/03 02:32:33;;;;;;;;;25.00;21.00;;;;;20.98;61.00;101271.72;5127425;27;45542;-45
2021/06/03 02:34:59;;;;;;;;;21.25;18.75;;;;;20.96;60.72;101276.25;5110611;27;45595;-45
2021/06/03 02:37:24;;;;;;;;;25.75;21.75;;;;;20.97;60.93;101278.00;5126251;27;45303;-44
2021/06/03 02:39:58;;;;;;;;;22.75;20.00;;;;;20.94;60.50;101278.13;5125117;27;45423;-46
2021/06/03 02:42:23;;;;;;;;;21.00;21.00;;;;;20.91;60.65;101284.50;5140409;27;45301;-45
2021/06/03 02:44:48;;;;;;;;;22.00;19.50;;;;;20.91;60.75;101280.97;5134601;27;45488;-45
2021/06/03 02:47:14;;;;;;;;;20.75;20.00;;;;;20.88;60.67;101273.09;5138948;27;45938;-47
2021/06/03 02:49:39;;;;;;;;;23.00;21.50;;;;;20.91;60.99;101280.97;5131431;27;45214;-47
2021/06/03 02:52:06;;;;;;;;;19.25;17.25;;;;;20.93;60.58;101279.09;5125641;27;45376;-45
2021/06/03 02:54:32;;;;;;;;;22.50;22.25;;;;;20.91;60.61;101278.31;5135992;27;45298;-49
2021/06/03 02:56:58;;;;;;;;;19.75;19.25;;;;;20.94;60.98;101281.69;5135474;27;46421;-48
2021/06/03 02:59:24;;;;;;;;;18.00;16.25;;;;;20.92;60.80;101286.22;5125874;27;45483;-45
2021/06/03 03:01:50;;;;;;;;;21.25;19.50;;;;;20.96;60.64;101278.94;5133992;27;45562;-46
2021/06/03 03:04:15;;;;;;;;;24.25;22.25;;;;;20.97;60.93;101288.69;5135934;27;45802;-46
2021/06/03 03:06:41;;;;;;;;;21.75;20.00;;;;;21.00;60.92;101298.34;5130167;27;46165;-50
2021/06/03 03:09:07;;;;;;;;;19.75;19.25;;;;;21.04;60.44;101294.59;5123281;27;45519;-48
2021/06/03 03:11:32;;;;;;;;;17.00;15.25;;;;;20.98;60.77;101295.75;5129481;27;45389;-45
2021/06/03 03:13:58;;;;;;;;;23.00;21.25;;;;;21.00;60.85;101298.34;5112620;27;45422;-45
2021/06/03 03:16:24;;;;;;;;;22.25;21.25;;;;;21.01;60.71;101292.94;5135904;27;46154;-45
2021/06/03 03:18:49;;;;;;;;;26.25;20.00;;;;;21.00;60.46;101296.53;5125270;27;45443;-46
2021/06/03 03:21:15;;;;;;;;;17.50;17.50;;;;;20.99;60.83;101294.78;5133491;27;45361;-47
2021/06/03 03:23:41;;;;;;;;;19.00;19.00;;;;;20.99;60.81;101300.13;5108686;27;45348;-45
2021/06/03 03:26:07;;;;;;;;;20.00;19.25;;;;;20.99;60.62;101302.81;5135247;27;45945;-45
2021/06/03 03:28:32;;;;;;;;;19.50;18.00;;;;;20.92;60.86;101302.25;5140369;27;45524;-48
2021/06/03 03:30:58;;;;;;;;;25.50;22.00;;;;;20.90;61.18;101309.47;5136496;27;45238;-44
2021/06/03 03:33:25;;;;;;;;;25.75;24.00;;;;;20.92;60.82;101320.09;5126833;27;45285;-46
2021/06/03 03:35:51;;;;;;;;;22.50;22.00;;;;;20.94;60.72;101316.41;5133529;27;45397;-47
2021/06/03 03:38:19;;;;;;;;;26.50;21.75;;;;;20.97;61.15;101322.53;5137399;27;45451;-44
2021/06/03 03:40:45;;;;;;;;;25.00;21.00;;;;;20.99;60.89;101332.19;5111548;27;45372;-44
2021/06/03 03:43:11;;;;;;;;;22.50;19.25;;;;;20.98;61.21;101329.59;5113461;27;45422;-45
2021/06/03 03:45:36;;;;;;;;;22.00;22.00;;;;;21.02;61.02;101331.19;5131290;27;45919;-44
2021/06/03 03:48:03;;;;;;;;;22.00;22.00;;;;;21.02;61.09;101334.75;5107467;27;45317;-45
2021/06/03 03:50:30;;;;;;;;;22.50;21.75;;;;;21.05;60.68;101342.59;5130376;27;45356;-43
2021/06/03 03:52:56;;;;;;;;;23.25;21.00;;;;;21.09;60.90;101345.97;5135154;27;45828;-47
2021/06/03 03:55:21;;;;;;;;;23.75;22.50;;;;;21.11;60.94;101350.31;5138922;27;45481;-45
2021/06/03 03:57:48;;;;;;;;;25.00;22.25;;;;;21.14;60.86;101349.28;5132392;27;45494;-45
2021/06/03 04:00:20;;;;;;;;;23.75;23.75;;;;;21.18;60.26;101347.34;5135368;27;45433;-46
2021/06/03 04:02:46;;;;;;;;;21.25;18.50;;;;;21.17;60.28;101345.59;5138294;27;45454;-44
2021/06/03 04:05:13;;;;;;;;;22.00;21.25;;;;;21.19;60.40;101354.41;5136059;27;46162;-45
2021/06/03 04:07:39;;;;;;;;;23.75;22.25;;;;;21.22;60.77;101360.47;5123355;27;45328;-45
2021/06/03 04:10:15;;;;;;;;;27.50;20.75;;;;;21.22;60.90;101365.81;5119037;27;45500;-44
2021/06/03 04:12:41;;;;;;;;;23.00;21.00;;;;;21.17;60.33;101364.31;5122288;27;45576;-46
2021/06/03 04:15:08;;;;;;;;;22.50;21.25;;;;;21.18;60.33;101360.69;5111733;27;47105;-45
2021/06/03 04:17:34;;;;;;;;;23.00;22.50;;;;;21.21;60.77;101373.94;5132747;27;45386;-44
2021/06/03 04:20:00;;;;;;;;;24.50;21.75;;;;;21.20;60.81;101378.38;5129630;27;45487;-46
2021/06/03 04:22:25;;;;;;;;;22.25;20.25;;;;;21.15;60.36;101369.72;5122212;27;45321;-44
2021/06/03 04:24:51;;;;;;;;;21.50;21.50;;;;;21.09;60.75;101375.38;5136534;27;45394;-46
2021/06/03 04:27:17;;;;;;;;;25.00;22.75;;;;;21.05;60.75;101373.78;5116043;27;45304;-45
2021/06/03 04:29:42;;;;;;;;;26.00;25.50;;;;;21.04;60.88;101372.94;5131675;27;45360;-47
2021/06/03 04:32:09;;;;;;;;;25.75;24.75;;;;;21.10;61.33;101380.63;5103853;27;45454;-45
2021/06/03 04:34:34;;;;;;;;;25.25;24.75;;;;;21.11;60.78;101377.03;5130404;27;46082;-47
2021/06/03 04:37:00;;;;;;;;;24.50;23.00;;;;;21.14;60.59;101372.47;5125444;27;45342;-46
2021/06/03 04:39:26;;;;;;;;;22.25;21.50;;;;;21.18;61.19;101382.97;5133404;27;45501;-46
2021/06/03 04:41:52;;;;;;;;;27.50;24.25;;;;;21.10;60.72;101369.94;5134313;27;45169;-46
2021/06/03 04:44:18;;;;;;;;;26.75;25.75;;;;;21.11;60.73;101377.03;5127945;27;46226;-46
2021/06/03 04:46:43;;;;;;;;;29.00;25.25;;;;;21.19;60.74;101386.50;5104509;27;45205;-49
2021/06/03 04:49:08;;;;;;;;;29.25;24.50;;;;;21.19;60.81;101383.81;5137952;27;45491;-47
2021/06/03 04:51:34;;;;;;;;;21.75;21.00;;;;;21.14;61.03;101378.69;5132172;27;45443;-45
2021/06/03 04:54:00;;;;;;;;;25.50;23.75;;;;;21.17;61.32;101380.34;5109973;27;46840;-45
2021/06/03 04:56:26;;;;;;;;;24.25;23.25;;;;;21.17;60.90;101388.34;5130552;27;45326;-46
2021/06/03 04:58:51;;;;;;;;;21.75;20.00;;;;;21.14;60.80;101376.00;5138549;27;45647;-62
2021/06/03 05:01:16;;;;;;;;;23.00;21.00;;;;;21.18;61.00;101374.06;5113320;27;45577;-61
2021/06/03 05:03:42;;;;;;;;;30.00;26.25;;;;;21.20;61.10;101374.84;5100877;27;45530;-61
2021/06/03 05:06:07;;;;;;;;;30.00;26.00;;;;;21.25;61.29;101380.84;5100502;27;45493;-60
2021/06/03 05:08:33;;;;;;;;;23.50;23.50;;;;;21.23;60.80;101372.91;5112575;27;46038;-61
2021/06/03 05:10:58;;;;;;;;;27.75;25.75;;;;;21.31;60.78;101375.19;5103124;27;45608;-59
2021/06/03 05:13:23;;;;;;;;;28.25;25.25;;;;;21.30;60.85;101378.81;5121748;27;46171;-60
2021/06/03 05:15:49;;;;;;;;;28.25;26.75;;;;;21.28;61.06;101380.69;5103140;27;45243;-59
2021/06/03 05:18:14;;;;;;;;;20.25;20.25;;;;;21.26;61.37;101379.91;5100286;27;45570;-59
2021/06/03 05:20:40;;;;;;;;;27.50;26.25;;;;;21.34;61.04;101384.88;5101263;27;45272;-59
2021/06/03 05:23:06;;;;;;;;;31.50;25.75;;;;;21.39;61.25;101383.69;5101167;27;46174;-60
2021/06/03 05:25:32;;;;;;;;;27.25;24.00;;;;;21.54;60.62;101389.22;5101597;27;45466;-60
2021/06/03 05:27:59;;;;;;;;;20.75;20.00;;;;;21.63;61.08;101398.63;5101351;27;45304;-49
2021/06/03 05:30:26;;;;;;;;;24.50;24.50;;;;;21.68;60.26;101389.41;5100989;27;45256;-46
2021/06/03 05:32:52;;;;;;;;;25.00;23.25;;;;;21.74;60.47;101394.44;5101092;27;46309;-49
2021/06/03 05:35:19;;;;;;;;;24.50;23.25;;;;;21.83;59.95;101397.63;5099772;27;45414;-47
2021/06/03 05:37:46;;;;;;;;;24.75;22.75;;;;;21.91;59.51;101393.59;5101147;27;45307;-49
2021/06/03 05:40:15;;;;;;;;;24.75;22.75;;;;;21.99;59.41;101393.19;5101833;27;45235;-51
2021/06/03 05:42:40;;;;;;;;;25.00;23.25;;;;;22.08;59.46;101392.69;5100518;27;45349;-48
2021/06/03 05:45:08;;;;;;;;;25.25;22.25;;;;;22.13;59.75;101388.94;5100859;27;45366;-47
2021/06/03 05:47:34;;;;;;;;;27.50;22.75;;;;;22.20;59.41;101395.69;5082732;27;45322;-49
2021/06/03 05:49:59;;;;;;;;;26.00;23.25;;;;;22.22;59.66;101402.69;5100949;27;45485;-49
2021/06/03 05:52:25;;;;;;;;;24.75;21.75;;;;;22.33;59.44;101406.63;5100802;27;46290;-53
2021/06/03 05:54:51;;;;;;;;;22.00;20.50;;;;;22.34;58.57;101400.31;5100827;27;45234;-46
2021/06/03 05:57:16;;;;;;;;;20.25;17.75;;;;;22.40;59.02;101408.91;5100642;27;45299;-51
2021/06/03 05:59:42;;;;;;;;;22.00;22.00;;;;;22.42;58.24;101403.47;5100843;27;45249;-46
2021/06/03 06:02:11;;;;;;;;;24.25;23.00;;;;;22.51;58.61;101411.00;5100664;27;47096;-49
2021/06/03 06:07:20;;;;;;;;;25.50;24.25;;;;;22.66;58.46;101398.59;5105229;27;45560;-47
2021/06/03 06:09:46;;;;;;;;;23.50;22.75;;;;;22.79;58.01;101408.63;5121365;27;45559;-52
2021/06/03 06:12:11;;;;;;;;;27.50;23.75;;;;;22.80;58.05;101407.69;5120341;27;46079;-49
2021/06/03 06:14:37;;;;;;;;;25.25;24.50;;;;;22.85;57.35;101405.63;5112742;27;45248;-49
2021/06/03 06:17:02;;;;;;;;;24.50;24.00;;;;;22.88;57.08;101417.03;5100608;27;45456;-47
2021/06/03 06:19:27;;;;;;;;;28.00;25.25;;;;;22.91;57.20;101416.00;5100662;27;45382;-49
2021/06/03 06:21:53;;;;;;;;;27.25;26.00;;;;;22.94;57.34;101417.66;5081940;27;46846;-49
2021/06/03 06:24:18;;;;;;;;;28.25;25.25;;;;;22.97;56.84;101423.69;5100518;27;45301;-49
2021/06/03 06:26:44;;;;;;;;;27.50;26.00;;;;;22.98;57.13;101425.44;5100340;27;45239;-46
2021/06/03 06:29:09;;;;;;;;;24.00;24.00;;;;;22.98;57.37;101436.16;5100605;27;45200;-49
2021/06/03 06:31:35;;;;;;;;;26.25;24.50;;;;;22.99;56.58;101437.00;5081800;27;46229;-47
2021/06/03 06:34:00;;;;;;;;;25.25;22.75;;;;;22.99;56.76;101435.22;5100421;27;45296;-50
2021/06/03 06:36:26;;;;;;;;;24.25;22.25;;;;;23.01;56.54;101433.28;5095711;27;45302;-48
2021/06/03 06:38:51;;;;;;;;;24.25;21.00;;;;;23.04;56.81;101437.59;5100427;27;45210;-48
2021/06/03 06:41:17;;;;;;;;;26.50;23.50;;;;;23.09;56.75;101438.22;5113719;27;45428;-47
2021/06/03 06:43:42;;;;;;;;;23.25;21.75;;;;;23.13;56.57;101430.88;5118265;27;45305;-50
2021/06/03 06:46:07;;;;;;;;;24.00;21.25;;;;;23.17;56.47;101433.34;5123369;27;45338;-46
2021/06/03 06:48:33;;;;;;;;;25.00;23.25;;;;;23.22;56.40;101438.44;5098852;27;45458;-46
2021/06/03 06:50:59;;;;;;;;;24.00;21.00;;;;;23.26;55.94;101444.47;5099510;27;45395;-49
2021/06/03 06:53:26;;;;;;;;;22.25;22.25;;;;;23.26;56.20;101448.03;5098678;27;45490;-49
2021/06/03 06:55:52;;;;;;;;;25.25;23.50;;;;;23.24;55.98;101439.19;5097960;27;45447;-45
2021/06/03 06:58:17;;;;;;;;;26.75;24.75;;;;;23.18;56.41;101442.22;5099957;27;45382;-47
2021/06/03 07:00:45;;;;;;;;;27.00;25.25;;;;;23.14;55.96;101444.19;5104487;27;45275;-46
2021/06/03 07:03:11;;;;;;;;;26.50;24.00;;;;;23.16;55.74;101436.09;5131853;27;45488;-48
2021/06/03 07:05:39;;;;;;;;;30.50;25.00;;;;;23.13;55.71;101441.59;5103863;27;45437;-48
2021/06/03 07:08:04;;;;;;;;;29.50;28.00;;;;;23.15;56.09;101435.22;5106797;27;45325;-47
2021/06/03 07:10:30;;;;;;;;;26.50;26.25;;;;;23.24;56.13;101438.34;5102201;27;47085;-47
2021/06/03 07:12:56;;;;;;;;;25.25;23.00;;;;;23.45;55.78;101438.94;5120329;27;45642;-49
2021/06/03 07:15:21;;;;;;;;;30.00;25.00;;;;;23.64;55.15;101444.94;5105769;27;45488;-47
2021/06/03 07:17:47;;;;;;;;;22.25;21.50;;;;;23.85;54.79;101452.72;5081253;27;45569;-48
2021/06/03 07:20:15;;;;;;;;;23.00;20.25;;;;;24.15;54.21;101446.47;5099462;27;46218;-48
2021/06/03 07:22:43;;;;;;;;;23.50;21.25;;;;;24.37;53.65;101454.09;5099892;27;45228;-48
2021/06/03 07:25:10;;;;;;;;;24.75;22.75;;;;;24.50;52.90;101452.41;5102069;27;45578;-49
2021/06/03 07:27:36;;;;;;;;;21.50;21.50;;;;;24.69;52.67;101459.34;5102985;27;45391;-47
2021/06/03 07:30:04;;;;;;;;;24.50;22.25;;;;;24.84;52.33;101454.81;5102962;27;46654;-49
2021/06/03 07:32:29;;;;;;;;;23.25;23.25;;;;;24.96;51.89;101445.09;5084468;27;45328;-47
2021/06/03 07:34:55;;;;;;;;;30.75;26.00;;;;;25.14;51.18;101456.50;5103098;27;45371;-46
2021/06/03 07:37:21;;;;;;;;;21.25;21.25;;;;;25.23;50.96;101450.53;5103096;27;45241;-50
2021/06/03 07:39:47;;;;;;;;;24.50;22.50;;;;;25.26;50.92;101453.00;5106084;27;46189;-49
2021/06/03 07:42:12;;;;;;;;;17.25;17.25;;;;;25.20;50.29;101457.94;5113419;27;45269;-46
2021/06/03 07:44:39;;;;;;;;;24.00;22.25;;;;;25.04;50.43;101463.44;5084608;27;45401;-49
2021/06/03 07:47:05;;;;;;;;;20.25;18.75;;;;;24.97;50.14;101466.50;5101626;27;45256;-49
2021/06/03 07:49:30;;;;;;;;;20.75;20.25;;;;;25.10;50.33;101466.56;5102598;27;45387;-45
2021/06/03 07:51:57;;;;;;;;;20.25;17.75;;;;;25.23;49.63;101468.47;5102920;27;45334;-47
2021/06/03 07:54:23;;;;;;;;;21.50;18.25;;;;;25.31;49.39;101472.41;5084494;27;45364;-48
2021/06/03 07:56:49;;;;;;;;;17.75;17.25;;;;;25.45;48.99;101476.06;5102274;27;45638;-48
2021/06/03 07:59:15;;;;;;;;;20.75;18.50;;;;;25.59;48.73;101470.59;5102568;27;45404;-48
2021/06/03 08:01:41;;;;;;;;;21.25;19.75;;;;;25.75;48.01;101475.00;5102502;27;45236;-47
2021/06/03 08:04:06;;;;;;;;;21.75;21.75;;;;;25.84;48.04;101476.19;5102701;27;45286;-47
2021/06/03 08:06:31;;;;;;;;;27.00;25.50;;;;;25.92;47.77;101477.41;5102686;27;45236;-44
2021/06/03 08:08:58;;;;;;;;;19.50;18.75;;;;;26.01;47.55;101477.72;5116568;27;45252;-45
2021/06/03 08:11:24;;;;;;;;;16.50;16.50;;;;;26.07;47.39;101480.03;5109400;27;45419;-45
2021/06/03 08:13:49;;;;;;;;;18.75;18.75;;;;;26.16;46.71;101484.78;5102716;27;45359;-49
2021/06/03 08:16:14;;;;;;;;;18.75;16.75;;;;;26.27;46.27;101479.53;5102493;27;45528;-50
2021/06/03 08:18:40;;;;;;;;;17.25;15.25;;;;;26.49;45.31;101488.81;5102203;27;45452;-46
2021/06/03 08:21:05;;;;;;;;;19.50;17.00;;;;;26.69;44.80;101484.72;5092644;27;45357;-45
2021/06/03 08:23:32;;;;;;;;;15.50;13.75;;;;;26.81;43.80;101496.50;5121239;27;45323;-47
2021/06/03 08:25:57;;;;;;;;;14.00;14.00;;;;;26.87;43.83;101485.25;5102154;27;45526;-45
2021/06/03 08:28:24;;;;;;;;;18.00;15.50;;;;;26.99;44.80;101485.34;5102009;27;45354;-45
2021/06/03 08:30:51;;;;;;;;;22.25;22.25;;;;;27.16;44.60;101495.78;5102359;27;45185;-46
2021/06/03 08:33:18;;;;;;;;;23.00;19.75;;;;;27.25;43.55;101489.69;5102281;27;45245;-46
2021/06/03 08:35:43;;;;;;;;;19.25;18.75;;;;;27.35;43.76;101492.59;5083854;27;45456;-47
2021/06/03 08:38:10;;;;;;;;;18.75;16.00;;;;;27.48;43.92;101487.19;5132158;27;45210;-47
2021/06/03 08:40:41;;;;;;;;;18.25;18.25;;;;;27.56;43.25;101490.19;5122151;27;45395;-50
2021/06/03 08:43:07;;;;;;;;;22.00;21.00;;;;;27.65;43.47;101491.31;5094257;27;45372;-45
2021/06/03 08:45:35;;;;;;;;;18.25;17.25;;;;;27.66;42.66;101476.84;5132606;27;45236;-45
2021/06/03 08:48:03;;;;;;;;;20.25;18.25;;;;;27.61;42.80;101488.97;5104320;27;45340;-49
2021/06/03 08:50:32;;;;;;;;;27.00;26.50;;;;;27.69;42.41;101487.41;5102068;27;45374;-45
2021/06/03 08:52:59;;;;;;;;;36.00;32.50;;;;;27.79;42.57;101486.72;5101790;27;45318;-47
2021/06/03 08:58:15;;;;;;;;;19.00;17.75;;;;;27.97;41.64;101487.16;5110223;27;45944;-53
2021/06/03 09:00:42;;;;;;;;;29.25;25.75;;;;;28.03;41.72;101482.16;5135804;27;45301;-48
2021/06/03 09:03:08;;;;;;;;;18.50;18.25;;;;;28.16;42.12;101487.50;5094578;27;45402;-47
2021/06/03 09:05:34;;;;;;;;;26.00;25.00;;;;;28.37;41.66;101492.22;5101409;27;45232;-48
2021/06/03 09:08:15;;;;;;;;;19.50;18.75;;;;;28.49;41.32;101493.97;5114385;27;46369;-49
2021/06/03 09:10:43;;;;;;;;;19.25;18.50;;;;;28.46;41.00;101482.53;5121758;27;45237;-51
2021/06/03 09:13:08;;;;;;;;;15.50;14.25;;;;;28.44;41.06;101482.66;5110914;27;45403;-50
2021/06/03 09:15:35;;;;;;;;;21.50;19.00;;;;;28.38;41.18;101483.97;5135919;27;45412;-48
2021/06/03 09:18:02;;;;;;;;;17.75;16.75;;;;;28.41;41.63;101499.09;5111953;27;47426;-51
2021/06/03 09:20:28;;;;;;;;;20.00;17.50;;;;;28.47;41.69;101482.41;5101146;27;45455;-48
2021/06/03 09:22:53;;;;;;;;;17.50;16.75;;;;;28.53;40.61;101479.22;5101274;27;45322;-48
2021/06/03 09:25:29;;;;;;;;;20.50;16.25;;;;;28.62;40.71;101484.88;5101239;27;45241;-45
2021/06/03 09:27:55;;;;;;;;;14.75;14.75;;;;;28.63;40.37;101479.34;5101167;27;45410;-49
2021/06/03 09:30:20;;;;;;;;;12.75;12.50;;;;;28.81;40.35;101479.75;5101140;27;45258;-50
2021/06/03 09:32:55;;;;;;;;;17.50;16.50;;;;;28.94;39.82;101484.16;5101383;27;45473;-49
2021/06/03 09:35:20;;;;;;;;;20.50;17.25;;;;;28.98;38.99;101472.97;5094370;27;45614;-48
2021/06/03 09:37:46;;;;;;;;;17.75;17.75;;;;;28.95;39.66;101465.09;5111112;27;46040;-51
2021/06/03 09:40:22;;;;;;;;;18.75;15.75;;;;;29.13;39.38;101473.59;5102521;27;45231;-50
2021/06/03 09:43:10;;;;;;;;;15.75;15.00;;;;;29.37;38.51;101480.69;5101074;27;45473;-49
2021/06/03 09:46:13;;;;;;;;;17.25;14.50;;;;;29.55;38.33;101472.88;5100902;27;45447;-50
2021/06/03 09:48:47;;;;;;;;;20.25;18.50;;;;;29.53;37.80;101474.84;5046306;28;45533;-50
2021/06/03 09:51:21;;;;;;;;;17.25;16.25;;;;;29.33;37.79;101476.50;5095448;27;45376;-49
2021/06/03 09:53:59;;;;;;;;;17.75;15.75;;;;;29.12;37.59;101477.25;5100804;27;45219;-45
2021/06/03 09:56:30;;;;;;;;;13.00;12.50;;;;;29.09;37.06;101477.50;5100644;27;45593;-48
2021/06/03 09:58:57;;;;;;;;;20.50;17.75;;;;;29.13;37.78;101478.13;5081948;27;46582;-48
2021/06/03 10:01:41;;;;;;;;;18.75;17.25;;;;;29.18;37.68;101484.00;5082489;27;45618;-51
2021/06/03 10:04:08;;;;;;;;;15.50;14.00;;;;;29.16;37.13;101484.13;5100784;27;45277;-48
2021/06/03 10:06:51;;;;;;;;;14.50;14.50;;;;;29.27;37.15;101491.38;5100821;27;45428;-48
2021/06/03 10:09:16;;;;;;;;;16.00;16.00;;;;;29.69;37.10;101476.28;5117368;27;45391;-49
2021/06/03 10:11:50;;;;;;;;;16.00;14.50;;;;;30.27;36.86;101474.03;5101991;27;45410;-50
2021/06/03 10:14:17;;;;;;;;;19.00;17.75;;;;;30.87;35.92;101477.91;5115743;27;45397;-47
2021/06/03 10:16:43;;;;;;;;;16.75;16.75;;;;;31.32;35.27;101480.22;5100312;27;45490;-49
2021/06/03 10:19:27;;;;;;;;;16.00;16.00;;;;;31.38;34.22;101470.66;5100417;27;45216;-49
2021/06/03 10:22:11;;;;;;;;;9.50;9.50;;;;;31.30;33.95;101471.34;5100173;27;45181;-47
2021/06/03 10:24:47;;;;;;;;;16.25;15.75;;;;;31.28;34.23;101473.34;5100517;27;45385;-49
2021/06/03 10:27:12;;;;;;;;;21.75;17.00;;;;;31.05;34.75;101451.84;5099946;27;45524;-48
2021/06/03 10:29:40;;;;;;;;;17.00;16.25;;;;;31.29;34.43;101461.50;5100439;27;45376;-49
2021/06/03 10:32:05;;;;;;;;;16.50;16.50;;;;;31.51;34.04;101465.81;5081743;27;45654;-47
2021/06/03 10:34:32;;;;;;;;;16.50;16.50;;;;;31.64;33.46;101475.56;5082090;27;45328;-48
2021/06/03 10:36:58;;;;;;;;;13.25;12.50;;;;;31.47;33.57;101477.94;5100291;27;45322;-48
2021/06/03 10:39:25;;;;;;;;;13.75;13.75;;;;;31.32;33.43;101476.63;5082162;27;47543;-49
2021/06/03 10:41:50;;;;;;;;;18.00;17.50;;;;;31.36;33.15;101478.06;5095195;27;45462;-48
2021/06/03 10:44:16;;;;;;;;;10.00;10.00;;;;;32.19;32.63;101477.69;5100362;27;45496;-46
2021/06/03 10:46:44;;;;;;;;;18.50;16.00;;;;;33.16;31.22;101472.91;5107088;27;45439;-48
2021/06/03 10:49:12;;;;;;;;;18.25;17.00;;;;;33.17;30.47;101482.75;5106486;27;45329;-48
2021/06/03 10:51:40;;;;;;;;;16.25;16.25;;;;;32.80;30.88;101480.97;5099979;27;45335;-49
2021/06/03 10:54:05;;;;;;;;;10.75;10.25;;;;;32.50;30.82;101480.19;5119233;27;45491;-50
2021/06/03 10:56:30;;;;;;;;;14.50;14.50;;;;;32.36;31.32;101484.25;5117775;27;45226;-49
2021/06/03 10:58:56;;;;;;;;;16.25;15.50;;;;;32.35;31.60;101480.69;5114755;27;45149;-46
2021/06/03 11:01:23;;;;;;;;;17.00;16.00;;;;;32.43;31.57;101479.94;5102335;27;45441;-49
2021/06/03 11:04:09;;;;;;;;;27.50;24.50;;;;;32.50;31.04;101480.19;5104782;27;45306;-50
2021/06/03 11:06:45;;;;;;;;;21.00;20.25;;;;;32.67;30.36;101478.56;5113504;27;45427;-49
2021/06/03 11:09:10;;;;;;;;;18.50;17.25;;;;;33.04;30.38;101474.97;5111359;27;46312;-48
2021/06/03 11:11:37;;;;;;;;;17.50;17.00;;;;;34.37;29.86;101474.38;5120591;27;45425;-45
2021/06/03 11:14:06;;;;;;;;;15.75;14.00;;;;;34.15;29.09;101477.44;5121428;27;45497;-49
2021/06/03 11:16:35;;;;;;;;;8.50;4.50;;;;;33.89;29.28;101480.16;5123977;27;45230;-48